Time;durP1;ratioP1;P1;durP2;ratioP2;P2;SDS_P1;SDS_P2;PMS_P1;PMS_P2;Temp;Humidity;BMP_temperature;BMP_pressure;BME280_temperature;BME280_humidity;BME280_pressure;Samples;Min_cycle;Max_cycle;Signal;HPM_P1;HPM_P2
2023/07/27 00:01:58;;;;;;;4.30;2.30;;;;;;;;;;108182;1257;48023;-29
2023/07/27 00:04:33;;;;;;;5.40;2.40;;;;;;;;;;108218;1268;41153;-29
2023/07/27 00:07:08;;;;;;;4.20;2.20;;;;;;;;;;108235;1261;38886;-29
2023/07/27 00:09:42;;;;;;;4.90;2.40;;;;;;;;;;108266;1258;40420;-29
2023/07/27 00:12:17;;;;;;;4.90;2.50;;;;;;;;;;107466;1262;891861;-29
2023/07/27 00:14:51;;;;;;;4.10;2.30;;;;;;;;;;108139;1257;41297;-29
2023/07/27 00:17:25;;;;;;;3.80;2.40;;;;;;;;;;108129;1267;38877;-29
2023/07/27 00:20:01;;;;;;;4.30;2.20;;;;;;;;;;108144;1273;40256;-29
2023/07/27 00:22:36;;;;;;;3.90;2.10;;;;;;;;;;108188;1261;48997;-30
2023/07/27 00:25:11;;;;;;;3.90;2.20;;;;;;;;;;108224;1258;41312;-30
2023/07/27 00:27:45;;;;;;;4.60;2.40;;;;;;;;;;108218;1256;39049;-29
2023/07/27 00:30:21;;;;;;;4.20;2.00;;;;;;;;;;108225;1266;40741;-29
2023/07/27 00:32:55;;;;;;;3.90;2.20;;;;;;;;;;107496;1261;892868;-30
2023/07/27 00:35:29;;;;;;;4.40;2.20;;;;;;;;;;108118;1270;41002;-30
2023/07/27 00:38:03;;;;;;;4.10;2.10;;;;;;;;;;108151;1270;39397;-30
2023/07/27 00:40:38;;;;;;;4.10;2.20;;;;;;;;;;108187;1266;40147;-30
2023/07/27 00:43:12;;;;;;;3.80;2.00;;;;;;;;;;108210;1257;48199;-30
2023/07/27 00:45:46;;;;;;;3.80;2.10;;;;;;;;;;108224;1270;41374;-30
2023/07/27 00:48:21;;;;;;;3.60;2.00;;;;;;;;;;108184;1257;39031;-30
2023/07/27 00:50:55;;;;;;;3.80;2.00;;;;;;;;;;108255;1258;40403;-30
2023/07/27 00:53:29;;;;;;;3.50;1.90;;;;;;;;;;108163;1263;48617;-29
2023/07/27 00:56:05;;;;;;;4.20;2.00;;;;;;;;;;108214;1257;41291;-29
2023/07/27 00:58:41;;;;;;;4.40;2.00;;;;;;;;;;108238;1257;40320;-29
2023/07/27 01:01:19;;;;;;;3.60;1.70;;;;;;;;;;108203;1257;40236;-29
2023/07/27 01:03:54;;;;;;;4.40;2.10;;;;;;;;;;108142;1261;43633;-29
2023/07/27 01:06:29;;;;;;;3.70;1.80;;;;;;;;;;108107;1257;42627;-29
2023/07/27 01:09:05;;;;;;;3.90;2.10;;;;;;;;;;108148;1264;39333;-29
2023/07/27 01:11:49;;;;;;;3.40;1.80;;;;;;;;;;108107;1264;40356;-29
2023/07/27 01:14:36;;;;;;;3.50;1.80;;;;;;;;;;108139;1269;49394;-29
2023/07/27 01:17:15;;;;;;;3.90;2.10;;;;;;;;;;108182;1269;41297;-29
2023/07/27 01:20:09;;;;;;;3.50;1.80;;;;;;;;;;108164;1263;38964;-29
2023/07/27 01:23:40;;;;;;;3.60;1.80;;;;;;;;;;108133;1257;40353;-29
2023/07/27 01:27:04;;;;;;;4.10;2.00;;;;;;;;;;108223;1270;43377;-29
2023/07/27 01:30:00;;;;;;;3.40;1.90;;;;;;;;;;108233;1257;41348;-29
2023/07/27 01:32:39;;;;;;;3.60;1.70;;;;;;;;;;108182;1257;39164;-29
2023/07/27 01:35:17;;;;;;;3.20;1.60;;;;;;;;;;108149;1267;41682;-29
2023/07/27 01:37:54;;;;;;;3.10;1.70;;;;;;;;;;108164;1273;43278;-29
2023/07/27 01:40:28;;;;;;;3.90;2.00;;;;;;;;;;108142;1262;41514;-29
2023/07/27 01:43:03;;;;;;;3.70;1.60;;;;;;;;;;107985;1257;175521;-29
2023/07/27 01:45:37;;;;;;;3.60;1.90;;;;;;;;;;108182;1269;40476;-29
2023/07/27 01:48:13;;;;;;;3.70;1.70;;;;;;;;;;108233;1259;42319;-29
2023/07/27 01:50:50;;;;;;;3.30;1.60;;;;;;;;;;108226;1270;42720;-29
2023/07/27 01:53:26;;;;;;;3.60;1.70;;;;;;;;;;108138;1257;38871;-29
2023/07/27 01:56:01;;;;;;;3.70;1.70;;;;;;;;;;108145;1261;40781;-31
2023/07/27 01:58:37;;;;;;;3.90;1.60;;;;;;;;;;108140;1270;42406;-31
2023/07/27 02:01:11;;;;;;;3.60;1.70;;;;;;;;;;108116;1264;41196;-32
2023/07/27 02:03:46;;;;;;;3.60;1.70;;;;;;;;;;108115;1259;38858;-32
2023/07/27 02:06:20;;;;;;;4.20;1.90;;;;;;;;;;108184;1260;40409;-32
2023/07/27 02:08:54;;;;;;;3.80;1.70;;;;;;;;;;108213;1261;42307;-32
2023/07/27 02:11:29;;;;;;;3.90;1.70;;;;;;;;;;108228;1264;41779;-32
2023/07/27 02:14:08;;;;;;;3.10;1.60;;;;;;;;;;108163;1257;38887;-32
2023/07/27 02:16:50;;;;;;;3.50;1.60;;;;;;;;;;108152;1268;40477;-30
2023/07/27 02:19:32;;;;;;;3.20;1.50;;;;;;;;;;108120;1269;42085;-30
2023/07/27 02:22:09;;;;;;;3.80;1.70;;;;;;;;;;108154;1270;41214;-29
2023/07/27 02:24:44;;;;;;;3.60;1.50;;;;;;;;;;108169;1257;40102;-30
2023/07/27 02:27:18;;;;;;;3.30;1.60;;;;;;;;;;108174;1272;40269;-30
2023/07/27 02:29:53;;;;;;;4.00;1.50;;;;;;;;;;108217;1261;43370;-29
2023/07/27 02:32:27;;;;;;;3.90;1.70;;;;;;;;;;108222;1269;41356;-30
2023/07/27 02:35:02;;;;;;;3.20;1.60;;;;;;;;;;108178;1262;39038;-30
2023/07/27 02:37:39;;;;;;;4.00;1.50;;;;;;;;;;108152;1258;41574;-30
2023/07/27 02:40:14;;;;;;;4.10;1.70;;;;;;;;;;108139;1270;42291;-30
2023/07/27 02:42:47;;;;;;;4.00;1.60;;;;;;;;;;108166;1264;43831;-30
2023/07/27 02:45:24;;;;;;;3.60;1.60;;;;;;;;;;108166;1258;38977;-30
2023/07/27 02:47:58;;;;;;;2.60;1.50;;;;;;;;;;108205;1257;40423;-30
2023/07/27 02:50:32;;;;;;;3.50;1.50;;;;;;;;;;108228;1272;42045;-30
2023/07/27 02:53:06;;;;;;;3.60;1.70;;;;;;;;;;108225;1265;41272;-29
2023/07/27 02:55:40;;;;;;;2.80;1.50;;;;;;;;;;108140;1261;38851;-30
2023/07/27 02:58:14;;;;;;;4.30;1.60;;;;;;;;;;108138;1265;40443;-30
2023/07/27 03:00:53;;;;;;;3.50;1.70;;;;;;;;;;108159;1271;42278;-30
2023/07/27 03:03:28;;;;;;;3.70;1.70;;;;;;;;;;108186;1257;41464;-30
2023/07/27 03:06:04;;;;;;;3.40;1.60;;;;;;;;;;108183;1260;38750;-30
2023/07/27 03:08:38;;;;;;;3.00;1.50;;;;;;;;;;108205;1257;40341;-30
2023/07/27 03:11:15;;;;;;;3.50;1.50;;;;;;;;;;108226;1263;42318;-29
2023/07/27 03:13:48;;;;;;;3.10;1.50;;;;;;;;;;108249;1268;41339;-29
2023/07/27 03:16:23;;;;;;;3.30;1.50;;;;;;;;;;108133;1261;39033;-29
2023/07/27 03:18:58;;;;;;;2.90;1.50;;;;;;;;;;108132;1273;40487;-29
2023/07/27 03:21:32;;;;;;;3.70;1.60;;;;;;;;;;108186;1258;43251;-29
2023/07/27 03:24:08;;;;;;;3.70;1.50;;;;;;;;;;108178;1261;41463;-29
2023/07/27 03:26:41;;;;;;;2.90;1.40;;;;;;;;;;108175;1260;40364;-31
2023/07/27 03:29:16;;;;;;;3.20;1.50;;;;;;;;;;108198;1256;40358;-30
2023/07/27 03:31:50;;;;;;;3.00;1.40;;;;;;;;;;108218;1256;42310;-30
2023/07/27 03:34:24;;;;;;;3.20;1.30;;;;;;;;;;108230;1256;42477;-30
2023/07/27 03:37:01;;;;;;;3.30;1.30;;;;;;;;;;108128;1261;40108;-30
2023/07/27 03:39:35;;;;;;;3.80;1.60;;;;;;;;;;108101;1270;42850;-31
2023/07/27 03:42:10;;;;;;;4.10;1.40;;;;;;;;;;108125;1267;42323;-30
2023/07/27 03:44:45;;;;;;;3.10;1.30;;;;;;;;;;108145;1262;42344;-30
2023/07/27 03:47:19;;;;;;;2.40;1.20;;;;;;;;;;108294;1261;44451;-30
2023/07/27 03:49:53;;;;;;;3.50;1.40;;;;;;;;;;108217;1268;41479;-31
2023/07/27 03:52:27;;;;;;;2.80;1.50;;;;;;;;;;108205;1257;42667;-30
2023/07/27 03:55:01;;;;;;;2.90;1.30;;;;;;;;;;108237;1257;41327;-31
2023/07/27 03:57:36;;;;;;;3.50;1.30;;;;;;;;;;108127;1261;44681;-31
2023/07/27 04:00:12;;;;;;;3.30;1.50;;;;;;;;;;108131;1266;40429;-31
2023/07/27 04:02:46;;;;;;;5.50;1.40;;;;;;;;;;108145;1261;42156;-31
2023/07/27 04:05:20;;;;;;;3.30;1.30;;;;;;;;;;108158;1258;41142;-31
2023/07/27 04:07:54;;;;;;;4.10;1.40;;;;;;;;;;108178;1260;44524;-30
2023/07/27 04:10:29;;;;;;;3.30;1.40;;;;;;;;;;108224;1263;40554;-31
2023/07/27 04:13:04;;;;;;;3.70;1.60;;;;;;;;;;108225;1270;42514;-30
2023/07/27 04:15:39;;;;;;;4.40;1.70;;;;;;;;;;108230;1257;41467;-30
2023/07/27 04:18:12;;;;;;;3.80;1.40;;;;;;;;;;108256;1264;44454;-30
2023/07/27 04:20:46;;;;;;;4.70;1.40;;;;;;;;;;108151;1266;40406;-30
2023/07/27 04:23:20;;;;;;;4.70;1.70;;;;;;;;;;108131;1261;42292;-30
2023/07/27 04:25:54;;;;;;;3.20;1.60;;;;;;;;;;108110;1270;41306;-30
2023/07/27 04:28:28;;;;;;;3.50;1.40;;;;;;;;;;108049;1264;47489;-30
2023/07/27 04:31:02;;;;;;;3.50;1.50;;;;;;;;;;108056;1273;40301;-31
2023/07/27 04:33:36;;;;;;;4.40;1.60;;;;;;;;;;108047;1263;43183;-31
2023/07/27 04:36:11;;;;;;;3.50;1.60;;;;;;;;;;108107;1263;42354;-34
2023/07/27 04:38:45;;;;;;;3.90;1.30;;;;;;;;;;108176;1260;45699;-33
2023/07/27 04:41:19;;;;;;;3.10;1.30;;;;;;;;;;108248;1257;40170;-33
2023/07/27 04:43:54;;;;;;;3.70;1.50;;;;;;;;;;108097;1268;176003;-33
2023/07/27 04:46:28;;;;;;;3.90;1.30;;;;;;;;;;108225;1260;42383;-33
2023/07/27 04:49:02;;;;;;;4.00;1.70;;;;;;;;;;108104;1259;45883;-33
2023/07/27 04:51:36;;;;;;;3.00;1.30;;;;;;;;;;108091;1264;40519;-33
2023/07/27 04:54:10;;;;;;;3.80;1.50;;;;;;;;;;108129;1273;43682;-33
2023/07/27 04:56:44;;;;;;;3.60;1.60;;;;;;;;;;108007;1262;175520;-33
2023/07/27 04:59:18;;;;;;;3.20;1.40;;;;;;;;;;108101;1259;44669;-33
2023/07/27 05:01:52;;;;;;;3.90;1.20;;;;;;;;;;108142;1257;40440;-33
2023/07/27 05:04:26;;;;;;;4.30;1.60;;;;;;;;;;108089;1268;42438;-33
2023/07/27 05:07:00;;;;;;;4.20;1.70;;;;;;;;;;108042;1269;175539;-34
2023/07/27 05:09:34;;;;;;;4.90;1.90;;;;;;;;;;108172;1260;45042;-34
2023/07/27 05:12:10;;;;;;;4.30;1.70;;;;;;;;;;108220;1269;40178;-34
2023/07/27 05:14:44;;;;;;;4.40;2.00;;;;;;;;;;108241;1261;42694;-34
2023/07/27 05:17:18;;;;;;;3.60;2.00;;;;;;;;;;108225;1257;41241;-33
2023/07/27 05:19:54;;;;;;;4.40;1.90;;;;;;;;;;108053;1263;45734;-34
2023/07/27 05:22:28;;;;;;;4.00;1.70;;;;;;;;;;108093;1258;40604;-34
2023/07/27 05:25:03;;;;;;;4.20;1.90;;;;;;;;;;108094;1273;42130;-33
2023/07/27 05:27:37;;;;;;;4.50;1.90;;;;;;;;;;108049;1258;41278;-34
2023/07/27 05:30:13;;;;;;;4.80;1.90;;;;;;;;;;108078;1260;175542;-34
2023/07/27 05:32:46;;;;;;;4.70;2.10;;;;;;;;;;108221;1265;40364;-34
2023/07/27 05:35:20;;;;;;;4.60;2.10;;;;;;;;;;108227;1256;43298;-34
2023/07/27 05:37:54;;;;;;;4.40;2.10;;;;;;;;;;108185;1266;42507;-33
2023/07/27 05:40:27;;;;;;;4.90;2.10;;;;;;;;;;108075;1262;46010;-34
2023/07/27 05:43:01;;;;;;;4.40;1.90;;;;;;;;;;108114;1261;40809;-33
2023/07/27 05:45:34;;;;;;;4.40;2.10;;;;;;;;;;108200;1272;43513;-33
2023/07/27 05:48:08;;;;;;;4.90;2.00;;;;;;;;;;108224;1266;41397;-33
2023/07/27 05:50:42;;;;;;;5.10;2.30;;;;;;;;;;108408;1260;47466;-34
2023/07/27 05:53:15;;;;;;;4.80;1.90;;;;;;;;;;108257;1269;41937;-33
2023/07/27 05:55:48;;;;;;;4.40;2.00;;;;;;;;;;108289;1270;42514;-34
2023/07/27 05:58:22;;;;;;;4.80;2.30;;;;;;;;;;108296;1256;41331;-34
2023/07/27 06:01:05;;;;;;;4.50;2.50;;;;;;;;;;108179;1260;44747;-33
2023/07/27 06:03:41;;;;;;;4.10;2.00;;;;;;;;;;108227;1270;40219;-33
2023/07/27 06:06:18;;;;;;;4.60;2.20;;;;;;;;;;108234;1270;44630;-33
2023/07/27 06:08:52;;;;;;;5.20;2.10;;;;;;;;;;108138;1257;41263;-33
2023/07/27 06:11:26;;;;;;;4.60;2.30;;;;;;;;;;108256;1256;47480;-33
2023/07/27 06:14:00;;;;;;;5.50;2.30;;;;;;;;;;108270;1261;41196;-34
2023/07/27 06:16:35;;;;;;;4.40;2.30;;;;;;;;;;108297;1260;43346;-33
2023/07/27 06:19:09;;;;;;;4.40;2.20;;;;;;;;;;108230;1270;41425;-34
2023/07/27 06:21:43;;;;;;;5.60;2.30;;;;;;;;;;108210;1258;46606;-34
2023/07/27 06:24:16;;;;;;;4.70;2.30;;;;;;;;;;108217;1268;41886;-34
2023/07/27 06:26:50;;;;;;;4.80;2.30;;;;;;;;;;108233;1260;42278;-34
2023/07/27 06:29:24;;;;;;;4.90;2.10;;;;;;;;;;108208;1270;42502;-33
2023/07/27 06:31:58;;;;;;;4.70;2.50;;;;;;;;;;108275;1257;45176;-33
2023/07/27 06:34:33;;;;;;;4.80;2.20;;;;;;;;;;108285;1263;40249;-33
2023/07/27 06:37:08;;;;;;;4.30;2.30;;;;;;;;;;108165;1257;43225;-32
2023/07/27 06:39:41;;;;;;;4.80;2.60;;;;;;;;;;108198;1260;41535;-33
2023/07/27 06:42:15;;;;;;;5.10;2.20;;;;;;;;;;108251;1263;45023;-32
2023/07/27 06:44:48;;;;;;;5.40;2.20;;;;;;;;;;108284;1256;40949;-32
2023/07/27 06:47:22;;;;;;;4.50;2.30;;;;;;;;;;108147;1267;44531;-32
2023/07/27 06:49:57;;;;;;;6.50;2.70;;;;;;;;;;108252;1269;41769;-33
2023/07/27 06:52:31;;;;;;;5.50;2.50;;;;;;;;;;108370;1257;44929;-31
2023/07/27 06:55:07;;;;;;;5.20;2.10;;;;;;;;;;108129;1269;40410;-31
2023/07/27 06:57:40;;;;;;;6.00;2.20;;;;;;;;;;108319;1259;43505;-32
2023/07/27 07:00:18;;;;;;;5.70;2.60;;;;;;;;;;108297;1271;41257;-32
2023/07/27 07:02:52;;;;;;;5.70;2.40;;;;;;;;;;108221;1262;44542;-32
2023/07/27 07:05:30;;;;;;;7.10;2.70;;;;;;;;;;108328;1257;40269;-32
2023/07/27 07:08:04;;;;;;;6.30;2.60;;;;;;;;;;108300;1256;42395;-31
2023/07/27 07:10:38;;;;;;;8.00;2.90;;;;;;;;;;108178;1256;42277;-31
2023/07/27 07:13:12;;;;;;;7.90;2.80;;;;;;;;;;108226;1256;45636;-32
2023/07/27 07:15:48;;;;;;;6.70;2.60;;;;;;;;;;108363;1272;40361;-31
2023/07/27 07:18:22;;;;;;;6.60;2.80;;;;;;;;;;108259;1259;43339;-31
2023/07/27 07:20:56;;;;;;;6.00;2.60;;;;;;;;;;108309;1272;42442;-32
2023/07/27 07:23:30;;;;;;;5.70;2.60;;;;;;;;;;108273;1257;45762;-32
2023/07/27 07:26:03;;;;;;;5.40;2.40;;;;;;;;;;108244;1261;40235;-32
2023/07/27 07:28:37;;;;;;;5.70;2.60;;;;;;;;;;108234;1257;42373;-32
2023/07/27 07:31:11;;;;;;;6.60;2.30;;;;;;;;;;108209;1266;41371;-32
2023/07/27 07:33:44;;;;;;;5.50;2.40;;;;;;;;;;108244;1261;46308;-32
2023/07/27 07:36:21;;;;;;;5.20;2.50;;;;;;;;;;108283;1269;40150;-32
2023/07/27 07:38:55;;;;;;;7.30;3.30;;;;;;;;;;107964;1265;175529;-32
2023/07/27 07:41:29;;;;;;;6.20;2.90;;;;;;;;;;108237;1265;41668;-32
2023/07/27 07:44:03;;;;;;;6.60;2.80;;;;;;;;;;108257;1266;44954;-31
2023/07/27 07:46:37;;;;;;;6.20;2.90;;;;;;;;;;108165;1257;42492;-32
2023/07/27 07:49:11;;;;;;;7.90;3.20;;;;;;;;;;108202;1272;41923;-32
2023/07/27 07:51:46;;;;;;;5.90;3.00;;;;;;;;;;108236;1256;41180;-32
2023/07/27 07:54:19;;;;;;;6.00;2.60;;;;;;;;;;108135;1256;44478;-32
2023/07/27 07:56:55;;;;;;;5.30;2.40;;;;;;;;;;108235;1268;40471;-32
2023/07/27 07:59:29;;;;;;;6.40;2.70;;;;;;;;;;108257;1265;42085;-32
2023/07/27 08:02:06;;;;;;;5.80;2.90;;;;;;;;;;108269;1257;41310;-32
2023/07/27 08:04:43;;;;;;;7.60;2.90;;;;;;;;;;108154;1270;47110;-32
2023/07/27 08:07:21;;;;;;;5.30;2.60;;;;;;;;;;108287;1272;40347;-32
2023/07/27 08:09:58;;;;;;;5.80;2.80;;;;;;;;;;108307;1257;43795;-32
2023/07/27 08:12:33;;;;;;;5.70;2.90;;;;;;;;;;108152;1258;42313;-32
2023/07/27 08:15:09;;;;;;;5.50;2.70;;;;;;;;;;108221;1270;39005;-32
2023/07/27 08:17:43;;;;;;;6.40;2.90;;;;;;;;;;108252;1260;41422;-32
2023/07/27 08:20:17;;;;;;;5.70;2.70;;;;;;;;;;108258;1268;42320;-32
2023/07/27 08:22:51;;;;;;;5.50;2.60;;;;;;;;;;108183;1268;41502;-32
2023/07/27 08:25:26;;;;;;;4.60;2.50;;;;;;;;;;108064;1256;175537;-32
2023/07/27 08:28:00;;;;;;;5.20;2.70;;;;;;;;;;107630;1263;890087;-32
2023/07/27 08:30:34;;;;;;;5.30;2.70;;;;;;;;;;108280;1261;42275;-32
2023/07/27 08:33:08;;;;;;;5.60;2.90;;;;;;;;;;108244;1258;41350;-32
2023/07/27 08:35:42;;;;;;;5.10;2.50;;;;;;;;;;108277;1257;39042;-32
2023/07/27 08:38:15;;;;;;;4.10;2.50;;;;;;;;;;108258;1261;40262;-32
2023/07/27 08:40:59;;;;;;;4.50;2.50;;;;;;;;;;108141;1270;42183;-32
2023/07/27 08:43:33;;;;;;;4.30;2.60;;;;;;;;;;108111;1265;41220;-32
2023/07/27 08:46:08;;;;;;;5.00;2.70;;;;;;;;;;108216;1257;39169;-32
2023/07/27 08:48:43;;;;;;;4.80;2.40;;;;;;;;;;108234;1256;41948;-32
2023/07/27 08:51:16;;;;;;;4.70;2.50;;;;;;;;;;108213;1256;43282;-32
2023/07/27 08:53:50;;;;;;;4.60;2.70;;;;;;;;;;108136;1258;41358;-32
2023/07/27 08:56:24;;;;;;;4.60;2.50;;;;;;;;;;108107;1261;38883;-32
2023/07/27 08:58:59;;;;;;;4.00;2.20;;;;;;;;;;108111;1273;41965;-32
2023/07/27 09:01:36;;;;;;;4.40;2.50;;;;;;;;;;108125;1261;42339;-32
2023/07/27 09:04:11;;;;;;;4.00;2.20;;;;;;;;;;108100;1256;41573;-32
2023/07/27 09:06:49;;;;;;;4.90;2.40;;;;;;;;;;108203;1261;40147;-32
2023/07/27 09:09:25;;;;;;;4.20;2.30;;;;;;;;;;108214;1256;40201;-32
2023/07/27 09:12:03;;;;;;;4.30;2.30;;;;;;;;;;108227;1272;41914;-30
2023/07/27 09:14:41;;;;;;;4.80;2.20;;;;;;;;;;108050;1266;194327;-29
2023/07/27 09:17:19;;;;;;;4.10;2.10;;;;;;;;;;108103;1270;39068;-29
2023/07/27 09:19:55;;;;;;;4.30;2.20;;;;;;;;;;108120;1261;40223;-29
2023/07/27 09:22:28;;;;;;;4.60;2.20;;;;;;;;;;108105;1266;42314;-29
2023/07/27 09:25:06;;;;;;;4.50;2.10;;;;;;;;;;108098;1261;41497;-29
2023/07/27 09:27:51;;;;;;;4.10;2.10;;;;;;;;;;108227;1257;39060;-30
2023/07/27 09:30:27;;;;;;;4.30;1.80;;;;;;;;;;108207;1262;39960;-30
2023/07/27 09:33:04;;;;;;;3.80;2.00;;;;;;;;;;108232;1260;43486;-29
2023/07/27 09:35:39;;;;;;;4.10;2.00;;;;;;;;;;108112;1261;41389;-29
2023/07/27 09:38:13;;;;;;;3.70;1.80;;;;;;;;;;108095;1271;40092;-29
2023/07/27 09:40:51;;;;;;;4.40;2.00;;;;;;;;;;108105;1262;40199;-29
2023/07/27 09:43:27;;;;;;;3.70;1.70;;;;;;;;;;108108;1262;42081;-29
2023/07/27 09:46:02;;;;;;;4.10;2.00;;;;;;;;;;108129;1256;41557;-30
2023/07/27 09:48:37;;;;;;;4.50;1.90;;;;;;;;;;108189;1271;38858;-30
2023/07/27 09:51:12;;;;;;;3.90;1.70;;;;;;;;;;108219;1257;40393;-30
2023/07/27 09:53:48;;;;;;;4.50;1.90;;;;;;;;;;108184;1270;42211;-29
2023/07/27 09:56:23;;;;;;;4.00;1.90;;;;;;;;;;108078;1261;41258;-29
2023/07/27 09:58:57;;;;;;;4.00;1.70;;;;;;;;;;108119;1259;40032;-29
2023/07/27 10:01:32;;;;;;;4.60;1.70;;;;;;;;;;108129;1267;40845;-28
2023/07/27 10:04:08;;;;;;;4.30;1.80;;;;;;;;;;108304;1256;41943;-28
2023/07/27 10:06:42;;;;;;;4.00;1.60;;;;;;;;;;108238;1267;42573;-28
2023/07/27 10:09:22;;;;;;;4.80;1.90;;;;;;;;;;108226;1259;39086;-29
2023/07/27 10:12:00;;;;;;;4.90;1.70;;;;;;;;;;108294;1272;40669;-29
2023/07/27 10:14:35;;;;;;;4.60;1.70;;;;;;;;;;108303;1265;44596;-29
2023/07/27 10:17:12;;;;;;;4.80;1.90;;;;;;;;;;108249;1262;47653;-29
2023/07/27 10:19:50;;;;;;;5.10;1.70;;;;;;;;;;108310;1257;38953;-28
2023/07/27 10:22:23;;;;;;;4.40;1.70;;;;;;;;;;108216;1256;40746;-29
2023/07/27 10:25:01;;;;;;;4.40;1.90;;;;;;;;;;108240;1262;42131;-29
2023/07/27 10:27:59;;;;;;;4.80;1.80;;;;;;;;;;108264;1258;48997;-30
2023/07/27 10:30:39;;;;;;;5.10;2.00;;;;;;;;;;108139;1261;38720;-31
2023/07/27 10:33:16;;;;;;;5.00;1.70;;;;;;;;;;108289;1263;40241;-31
2023/07/27 10:36:08;;;;;;;3.90;1.50;;;;;;;;;;108186;1257;42266;-31
2023/07/27 10:38:44;;;;;;;5.60;2.10;;;;;;;;;;108260;1269;41236;-31
2023/07/27 10:41:22;;;;;;;4.30;1.70;;;;;;;;;;108297;1269;40246;-31
2023/07/27 10:44:19;;;;;;;4.30;1.60;;;;;;;;;;108293;1257;41789;-30
2023/07/27 10:46:59;;;;;;;4.00;1.50;;;;;;;;;;108176;1257;42511;-30
2023/07/27 10:49:33;;;;;;;3.80;1.40;;;;;;;;;;108303;1259;41190;-31
2023/07/27 10:52:08;;;;;;;3.90;1.60;;;;;;;;;;108297;1257;39472;-30
2023/07/27 10:54:44;;;;;;;4.10;1.60;;;;;;;;;;108333;1272;41558;-30
2023/07/27 10:57:20;;;;;;;4.60;1.60;;;;;;;;;;108210;1256;43591;-31
2023/07/27 10:59:54;;;;;;;3.60;1.50;;;;;;;;;;108299;1270;41209;-31
2023/07/27 11:02:33;;;;;;;4.10;1.60;;;;;;;;;;108288;1261;38862;-31
2023/07/27 11:05:10;;;;;;;;;;;;;;;;;;108214;1259;193621;-31
2023/07/27 11:07:44;;;;;;;;;;;;;;;;;;108278;1259;42323;-31
2023/07/27 11:10:26;;;;;;;3.80;1.30;;;;;;;;;;108082;1261;41378;-31
2023/07/27 11:12:59;;;;;;;4.10;1.30;;;;;;;;;;108285;1259;38850;-31
2023/07/27 11:15:33;;;;;;;4.00;1.40;;;;;;;;;;108299;1260;40267;-31
2023/07/27 11:18:08;;;;;;;3.40;1.40;;;;;;;;;;108257;1269;42455;-31
2023/07/27 11:20:45;;;;;;;3.00;1.20;;;;;;;;;;108243;1257;41387;-31
2023/07/27 11:23:20;;;;;;;3.50;1.40;;;;;;;;;;107628;1271;891747;-31
2023/07/27 11:25:57;;;;;;;2.80;1.00;;;;;;;;;;108232;1258;40210;-31
2023/07/27 11:28:31;;;;;;;2.90;1.10;;;;;;;;;;108313;1256;42282;-31
2023/07/27 11:31:07;;;;;;;3.50;1.20;;;;;;;;;;108246;1266;42666;-31
2023/07/27 11:33:40;;;;;;;3.20;1.20;;;;;;;;;;108271;1265;39947;-31
2023/07/27 11:36:14;;;;;;;3.10;1.10;;;;;;;;;;108230;1256;41633;-31
2023/07/27 11:38:48;;;;;;;2.90;1.20;;;;;;;;;;108067;1257;49065;-31
2023/07/27 11:41:21;;;;;;;2.90;1.10;;;;;;;;;;108085;1273;41196;-31
2023/07/27 11:44:16;;;;;;;2.60;1.00;;;;;;;;;;108071;1268;38983;-31
2023/07/27 11:46:53;;;;;;;2.70;1.00;;;;;;;;;;108052;1257;40328;-31
2023/07/27 11:49:28;;;;;;;3.40;0.90;;;;;;;;;;108185;1257;123631;-31
2023/07/27 11:52:08;;;;;;;2.40;0.90;;;;;;;;;;108251;1272;41643;-31
2023/07/27 11:54:43;;;;;;;2.70;0.90;;;;;;;;;;108256;1269;40319;-31
2023/07/27 11:57:19;;;;;;;3.00;1.10;;;;;;;;;;108206;1268;42599;-31
2023/07/27 12:00:12;;;;;;;2.90;1.00;;;;;;;;;;108244;1268;43686;-31
2023/07/27 12:02:50;;;;;;;2.40;0.80;;;;;;;;;;108282;1268;43629;-31
2023/07/27 12:05:26;;;;;;;2.90;1.00;;;;;;;;;;108259;1271;38822;-31
2023/07/27 12:08:03;;;;;;;2.60;0.80;;;;;;;;;;108224;1259;40454;-31
2023/07/27 12:10:40;;;;;;;2.50;0.80;;;;;;;;;;108262;1271;42137;-31
2023/07/27 12:13:22;;;;;;;2.50;1.00;;;;;;;;;;108259;1257;41519;-31
2023/07/27 12:16:18;;;;;;;2.90;0.90;;;;;;;;;;108268;1261;38819;-31
2023/07/27 12:18:56;;;;;;;2.30;0.90;;;;;;;;;;108196;1262;40209;-31
2023/07/27 12:21:30;;;;;;;2.40;0.90;;;;;;;;;;108291;1260;43495;-31
2023/07/27 12:24:09;;;;;;;2.00;0.70;;;;;;;;;;108256;1259;43701;-31
2023/07/27 12:26:46;;;;;;;2.20;0.80;;;;;;;;;;108270;1266;40009;-31
2023/07/27 12:29:23;;;;;;;2.20;0.80;;;;;;;;;;108216;1273;40373;-31
2023/07/27 12:31:59;;;;;;;3.50;1.00;;;;;;;;;;108260;1261;43573;-31
2023/07/27 12:34:36;;;;;;;2.40;1.00;;;;;;;;;;108280;1262;42220;-31
2023/07/27 12:37:13;;;;;;;2.70;0.90;;;;;;;;;;108286;1269;39030;-31
2023/07/27 12:39:50;;;;;;;3.70;1.10;;;;;;;;;;108263;1261;40214;-30
2023/07/27 12:42:25;;;;;;;2.50;0.90;;;;;;;;;;108114;1259;42303;-30
2023/07/27 12:44:59;;;;;;;3.10;0.90;;;;;;;;;;108312;1263;42163;-30
2023/07/27 12:47:34;;;;;;;2.40;0.90;;;;;;;;;;108320;1269;38847;-30
2023/07/27 12:50:09;;;;;;;2.50;0.90;;;;;;;;;;108249;1261;40414;-30
2023/07/27 12:52:44;;;;;;;2.40;0.90;;;;;;;;;;108326;1260;42390;-31
2023/07/27 12:55:19;;;;;;;2.70;1.00;;;;;;;;;;108281;1263;41324;-31
2023/07/27 12:57:53;;;;;;;2.20;0.90;;;;;;;;;;108258;1268;38899;-31
2023/07/27 13:00:28;;;;;;;3.40;1.00;;;;;;;;;;108385;1259;45991;-31
2023/07/27 13:03:02;;;;;;;4.30;1.30;;;;;;;;;;108324;1259;42114;-31
2023/07/27 13:05:37;;;;;;;2.70;1.00;;;;;;;;;;108289;1269;41187;-31
2023/07/27 13:08:11;;;;;;;3.00;1.20;;;;;;;;;;108316;1258;40088;-31
2023/07/27 13:10:47;;;;;;;2.40;1.00;;;;;;;;;;108270;1259;45847;-31
2023/07/27 13:13:21;;;;;;;2.30;0.90;;;;;;;;;;108322;1267;43676;-30
2023/07/27 13:15:55;;;;;;;3.20;1.00;;;;;;;;;;108245;1259;41303;-30
2023/07/27 13:18:30;;;;;;;2.20;0.90;;;;;;;;;;108155;1271;175483;-31
2023/07/27 13:21:07;;;;;;;2.60;0.80;;;;;;;;;;108225;1262;47008;-30
2023/07/27 13:23:41;;;;;;;3.40;0.90;;;;;;;;;;108257;1272;42182;-30
2023/07/27 13:26:15;;;;;;;3.10;1.00;;;;;;;;;;108080;1262;41194;-31
2023/07/27 13:28:49;;;;;;;2.80;1.00;;;;;;;;;;108287;1272;40092;-31
2023/07/27 13:31:23;;;;;;;2.20;0.90;;;;;;;;;;108230;1262;46410;-31
2023/07/27 13:33:57;;;;;;;2.20;0.90;;;;;;;;;;108234;1261;42529;-31
2023/07/27 13:36:31;;;;;;;2.50;0.90;;;;;;;;;;108339;1260;41347;-31
2023/07/27 13:39:08;;;;;;;2.10;0.80;;;;;;;;;;108267;1271;39419;-31
2023/07/27 13:41:42;;;;;;;2.50;0.90;;;;;;;;;;108259;1264;46256;-31
2023/07/27 13:44:16;;;;;;;2.20;0.80;;;;;;;;;;108284;1271;42454;-30
2023/07/27 13:46:51;;;;;;;1.90;0.90;;;;;;;;;;108304;1266;41246;-30
2023/07/27 13:49:25;;;;;;;2.30;0.90;;;;;;;;;;108292;1272;40411;-30
2023/07/27 13:51:59;;;;;;;3.90;1.10;;;;;;;;;;108180;1257;48045;-31
2023/07/27 13:54:33;;;;;;;6.00;1.20;;;;;;;;;;108075;1265;42219;-31
2023/07/27 13:57:07;;;;;;;3.00;0.80;;;;;;;;;;108125;1262;175481;-31
2023/07/27 13:59:43;;;;;;;18.10;7.80;;;;;;;;;;108249;1269;39527;-31
2023/07/27 14:02:17;;;;;;;20.50;9.60;;;;;;;;;;108134;1263;47086;-31
2023/07/27 14:04:50;;;;;;;13.30;5.00;;;;;;;;;;108281;1269;43452;-31
2023/07/27 14:07:24;;;;;;;9.00;3.90;;;;;;;;;;108290;1263;42233;-31
2023/07/27 14:09:58;;;;;;;16.90;8.40;;;;;;;;;;108272;1260;39194;-31
2023/07/27 14:12:31;;;;;;;9.20;3.90;;;;;;;;;;108213;1269;45431;-31
2023/07/27 14:15:06;;;;;;;6.50;2.70;;;;;;;;;;108248;1260;42339;-31
2023/07/27 14:17:40;;;;;;;8.90;4.20;;;;;;;;;;108302;1262;41601;-32
2023/07/27 14:20:15;;;;;;;9.60;3.80;;;;;;;;;;108266;1257;39035;-32
2023/07/27 14:22:49;;;;;;;7.40;2.90;;;;;;;;;;108456;1257;47233;-31
2023/07/27 14:25:24;;;;;;;6.00;2.40;;;;;;;;;;108270;1268;42580;-31
2023/07/27 14:27:58;;;;;;;4.90;1.80;;;;;;;;;;108246;1263;42489;-31
2023/07/27 14:30:32;;;;;;;5.30;2.10;;;;;;;;;;108295;1272;38985;-31
2023/07/27 14:33:06;;;;;;;5.60;2.10;;;;;;;;;;108114;1261;48856;-31
2023/07/27 14:35:41;;;;;;;5.60;1.90;;;;;;;;;;108141;1262;42732;-31
2023/07/27 14:38:20;;;;;;;4.30;1.60;;;;;;;;;;108280;1260;42151;-31
2023/07/27 14:40:54;;;;;;;5.10;1.90;;;;;;;;;;108222;1260;38930;-31
2023/07/27 14:43:29;;;;;;;3.70;1.40;;;;;;;;;;108292;1260;40292;-31
2023/07/27 14:46:04;;;;;;;4.10;1.50;;;;;;;;;;108197;1266;42662;-31
2023/07/27 14:48:39;;;;;;;3.40;1.40;;;;;;;;;;108301;1267;41397;-31
2023/07/27 14:51:13;;;;;;;4.00;1.50;;;;;;;;;;108278;1269;40345;-31
2023/07/27 14:53:48;;;;;;;3.10;1.20;;;;;;;;;;108249;1260;46274;-31
2023/07/27 14:56:24;;;;;;;2.90;1.10;;;;;;;;;;108133;1261;43565;-31
2023/07/27 14:58:59;;;;;;;3.20;1.20;;;;;;;;;;108275;1260;41466;-31
2023/07/27 15:01:35;;;;;;;3.30;1.30;;;;;;;;;;108261;1257;39132;-31
2023/07/27 15:04:24;;;;;;;3.60;1.20;;;;;;;;;;108175;1263;40414;-31
2023/07/27 15:07:01;;;;;;;2.70;1.20;;;;;;;;;;108263;1264;42394;-31
2023/07/27 15:09:36;;;;;;;2.80;1.00;;;;;;;;;;108290;1269;42749;-31
2023/07/27 15:12:11;;;;;;;2.40;1.00;;;;;;;;;;108259;1257;40405;-31
2023/07/27 15:14:45;;;;;;;3.00;1.10;;;;;;;;;;108291;1259;40672;-31
2023/07/27 15:17:20;;;;;;;3.30;1.20;;;;;;;;;;108321;1268;44105;-31
2023/07/27 15:19:54;;;;;;;2.70;1.10;;;;;;;;;;108250;1265;42608;-31
2023/07/27 15:22:28;;;;;;;3.00;1.20;;;;;;;;;;108283;1260;39665;-31